sensor_id;sensor_type;location;lat;lon;timestamp;P1;durP1;ratioP1;P2;durP2;ratioP2
65077;SDS011;51672;51.230;-2.322;2022-09-09T00:03:26;5.70;;;2.35;;
65077;SDS011;51672;51.230;-2.322;2022-09-09T00:07:25;6.75;;;2.88;;
65077;SDS011;51672;51.230;-2.322;2022-09-09T00:11:15;7.57;;;3.30;;
65077;SDS011;51672;51.230;-2.322;2022-09-09T00:15:12;8.97;;;4.27;;
65077;SDS011;51672;51.230;-2.322;2022-09-09T00:19:06;10.07;;;4.78;;
65077;SDS011;51672;51.230;-2.322;2022-09-09T00:26:53;9.13;;;3.97;;
65077;SDS011;51672;51.230;-2.322;2022-09-09T00:30:46;9.00;;;3.80;;
65077;SDS011;51672;51.230;-2.322;2022-09-09T00:34:31;8.63;;;4.38;;
65077;SDS011;51672;51.230;-2.322;2022-09-09T00:38:25;8.55;;;4.85;;
65077;SDS011;51672;51.230;-2.322;2022-09-09T00:42:17;9.98;;;4.75;;
65077;SDS011;51672;51.230;-2.322;2022-09-09T00:54:24;9.03;;;4.53;;
65077;SDS011;51672;51.230;-2.322;2022-09-09T00:58:15;10.10;;;4.90;;
65077;SDS011;51672;51.230;-2.322;2022-09-09T01:01:56;8.55;;;4.40;;
65077;SDS011;51672;51.230;-2.322;2022-09-09T01:05:45;13.13;;;5.20;;
65077;SDS011;51672;51.230;-2.322;2022-09-09T01:09:50;8.60;;;4.15;;
65077;SDS011;51672;51.230;-2.322;2022-09-09T01:13:36;9.32;;;4.35;;
65077;SDS011;51672;51.230;-2.322;2022-09-09T01:17:21;10.82;;;5.13;;
65077;SDS011;51672;51.230;-2.322;2022-09-09T01:29:19;10.30;;;3.90;;
65077;SDS011;51672;51.230;-2.322;2022-09-09T01:33:03;7.87;;;3.03;;
65077;SDS011;51672;51.230;-2.322;2022-09-09T01:36:53;9.07;;;3.30;;
65077;SDS011;51672;51.230;-2.322;2022-09-09T01:40:47;6.38;;;3.17;;
65077;SDS011;51672;51.230;-2.322;2022-09-09T01:44:30;7.83;;;2.87;;
65077;SDS011;51672;51.230;-2.322;2022-09-09T01:48:12;8.90;;;2.72;;
65077;SDS011;51672;51.230;-2.322;2022-09-09T01:51:55;6.90;;;2.90;;
65077;SDS011;51672;51.230;-2.322;2022-09-09T01:55:39;7.95;;;3.13;;
65077;SDS011;51672;51.230;-2.322;2022-09-09T01:59:30;6.18;;;2.88;;
65077;SDS011;51672;51.230;-2.322;2022-09-09T02:03:28;8.75;;;2.75;;
65077;SDS011;51672;51.230;-2.322;2022-09-09T02:07:19;7.95;;;2.47;;
65077;SDS011;51672;51.230;-2.322;2022-09-09T02:15:04;6.78;;;2.00;;
65077;SDS011;51672;51.230;-2.322;2022-09-09T02:18:54;4.93;;;1.73;;
65077;SDS011;51672;51.230;-2.322;2022-09-09T02:22:42;8.53;;;2.20;;
65077;SDS011;51672;51.230;-2.322;2022-09-09T02:26:27;5.05;;;2.20;;
65077;SDS011;51672;51.230;-2.322;2022-09-09T02:30:09;7.93;;;2.80;;
65077;SDS011;51672;51.230;-2.322;2022-09-09T02:33:56;6.88;;;2.70;;
65077;SDS011;51672;51.230;-2.322;2022-09-09T02:37:42;10.45;;;3.25;;
65077;SDS011;51672;51.230;-2.322;2022-09-09T02:41:28;7.80;;;3.10;;
65077;SDS011;51672;51.230;-2.322;2022-09-09T02:45:17;7.53;;;2.83;;
65077;SDS011;51672;51.230;-2.322;2022-09-09T02:49:06;5.90;;;2.60;;
65077;SDS011;51672;51.230;-2.322;2022-09-09T02:53:12;7.32;;;2.58;;
65077;SDS011;51672;51.230;-2.322;2022-09-09T02:57:04;7.45;;;2.55;;
65077;SDS011;51672;51.230;-2.322;2022-09-09T03:00:51;9.27;;;2.80;;
65077;SDS011;51672;51.230;-2.322;2022-09-09T03:04:34;5.22;;;2.10;;
65077;SDS011;51672;51.230;-2.322;2022-09-09T03:08:16;9.32;;;2.47;;
65077;SDS011;51672;51.230;-2.322;2022-09-09T03:11:58;7.93;;;3.35;;
65077;SDS011;51672;51.230;-2.322;2022-09-09T03:15:40;8.60;;;3.47;;
65077;SDS011;51672;51.230;-2.322;2022-09-09T03:19:23;10.27;;;4.07;;
65077;SDS011;51672;51.230;-2.322;2022-09-09T03:23:05;10.00;;;4.28;;
65077;SDS011;51672;51.230;-2.322;2022-09-09T03:26:52;9.50;;;4.33;;
65077;SDS011;51672;51.230;-2.322;2022-09-09T03:30:34;9.88;;;4.68;;
65077;SDS011;51672;51.230;-2.322;2022-09-09T03:34:16;9.90;;;4.15;;
65077;SDS011;51672;51.230;-2.322;2022-09-09T03:37:58;10.50;;;5.17;;
65077;SDS011;51672;51.230;-2.322;2022-09-09T03:41:41;8.35;;;4.10;;
65077;SDS011;51672;51.230;-2.322;2022-09-09T03:45:27;9.80;;;3.92;;
65077;SDS011;51672;51.230;-2.322;2022-09-09T03:49:09;9.35;;;3.70;;
65077;SDS011;51672;51.230;-2.322;2022-09-09T03:52:52;9.40;;;3.63;;
65077;SDS011;51672;51.230;-2.322;2022-09-09T03:56:34;9.57;;;3.97;;
65077;SDS011;51672;51.230;-2.322;2022-09-09T04:00:17;7.65;;;3.13;;
65077;SDS011;51672;51.230;-2.322;2022-09-09T04:03:59;7.53;;;2.97;;
65077;SDS011;51672;51.230;-2.322;2022-09-09T04:07:41;5.75;;;2.53;;
65077;SDS011;51672;51.230;-2.322;2022-09-09T04:11:23;6.70;;;2.75;;
65077;SDS011;51672;51.230;-2.322;2022-09-09T04:15:05;7.73;;;2.60;;
65077;SDS011;51672;51.230;-2.322;2022-09-09T04:18:48;6.88;;;3.10;;
65077;SDS011;51672;51.230;-2.322;2022-09-09T04:22:30;7.03;;;3.20;;
65077;SDS011;51672;51.230;-2.322;2022-09-09T04:26:13;8.90;;;3.65;;
65077;SDS011;51672;51.230;-2.322;2022-09-09T04:29:55;7.70;;;3.33;;
65077;SDS011;51672;51.230;-2.322;2022-09-09T04:33:37;8.48;;;3.40;;
65077;SDS011;51672;51.230;-2.322;2022-09-09T04:37:20;7.05;;;2.88;;
65077;SDS011;51672;51.230;-2.322;2022-09-09T04:41:02;5.63;;;2.93;;
65077;SDS011;51672;51.230;-2.322;2022-09-09T04:44:45;8.18;;;3.10;;
65077;SDS011;51672;51.230;-2.322;2022-09-09T04:48:27;5.65;;;2.92;;
65077;SDS011;51672;51.230;-2.322;2022-09-09T04:52:09;6.73;;;2.77;;
65077;SDS011;51672;51.230;-2.322;2022-09-09T04:56:04;7.65;;;2.88;;
65077;SDS011;51672;51.230;-2.322;2022-09-09T04:59:48;7.32;;;2.55;;
65077;SDS011;51672;51.230;-2.322;2022-09-09T05:03:30;8.20;;;2.35;;
65077;SDS011;51672;51.230;-2.322;2022-09-09T05:07:12;8.60;;;2.33;;
65077;SDS011;51672;51.230;-2.322;2022-09-09T05:10:56;7.38;;;1.83;;
65077;SDS011;51672;51.230;-2.322;2022-09-09T05:14:38;6.22;;;1.67;;
65077;SDS011;51672;51.230;-2.322;2022-09-09T05:18:20;4.80;;;1.30;;
65077;SDS011;51672;51.230;-2.322;2022-09-09T05:22:03;6.88;;;1.05;;
65077;SDS011;51672;51.230;-2.322;2022-09-09T05:25:53;7.50;;;2.08;;
65077;SDS011;51672;51.230;-2.322;2022-09-09T05:29:38;6.33;;;0.97;;
65077;SDS011;51672;51.230;-2.322;2022-09-09T05:33:22;5.90;;;1.02;;
65077;SDS011;51672;51.230;-2.322;2022-09-09T05:37:05;5.40;;;0.90;;
65077;SDS011;51672;51.230;-2.322;2022-09-09T05:40:49;6.10;;;1.00;;
65077;SDS011;51672;51.230;-2.322;2022-09-09T05:44:31;6.85;;;1.08;;
65077;SDS011;51672;51.230;-2.322;2022-09-09T05:48:14;7.13;;;1.02;;
65077;SDS011;51672;51.230;-2.322;2022-09-09T05:51:57;3.78;;;0.77;;
65077;SDS011;51672;51.230;-2.322;2022-09-09T05:55:38;5.33;;;0.80;;
65077;SDS011;51672;51.230;-2.322;2022-09-09T05:59:20;4.65;;;1.10;;
65077;SDS011;51672;51.230;-2.322;2022-09-09T06:03:04;6.63;;;1.48;;
65077;SDS011;51672;51.230;-2.322;2022-09-09T06:06:46;4.70;;;0.90;;
65077;SDS011;51672;51.230;-2.322;2022-09-09T06:10:30;6.40;;;1.00;;
65077;SDS011;51672;51.230;-2.322;2022-09-09T06:14:12;7.15;;;1.20;;
65077;SDS011;51672;51.230;-2.322;2022-09-09T06:17:54;4.15;;;1.10;;
65077;SDS011;51672;51.230;-2.322;2022-09-09T06:21:37;6.00;;;1.50;;
65077;SDS011;51672;51.230;-2.322;2022-09-09T06:25:19;9.02;;;1.23;;
65077;SDS011;51672;51.230;-2.322;2022-09-09T06:29:02;7.55;;;1.30;;
65077;SDS011;51672;51.230;-2.322;2022-09-09T06:32:45;6.97;;;1.43;;
65077;SDS011;51672;51.230;-2.322;2022-09-09T06:36:31;6.78;;;1.27;;
65077;SDS011;51672;51.230;-2.322;2022-09-09T06:40:15;7.07;;;1.63;;
65077;SDS011;51672;51.230;-2.322;2022-09-09T06:43:57;10.97;;;1.70;;
65077;SDS011;51672;51.230;-2.322;2022-09-09T06:47:39;11.30;;;1.77;;
65077;SDS011;51672;51.230;-2.322;2022-09-09T06:51:22;7.50;;;1.40;;
65077;SDS011;51672;51.230;-2.322;2022-09-09T06:55:05;9.70;;;1.50;;
65077;SDS011;51672;51.230;-2.322;2022-09-09T06:58:47;6.63;;;1.27;;
65077;SDS011;51672;51.230;-2.322;2022-09-09T07:02:30;6.95;;;1.45;;
65077;SDS011;51672;51.230;-2.322;2022-09-09T07:06:15;7.15;;;1.60;;
65077;SDS011;51672;51.230;-2.322;2022-09-09T07:10:02;8.93;;;1.43;;
65077;SDS011;51672;51.230;-2.322;2022-09-09T07:13:45;5.43;;;1.30;;
65077;SDS011;51672;51.230;-2.322;2022-09-09T07:17:28;8.52;;;1.70;;
65077;SDS011;51672;51.230;-2.322;2022-09-09T07:21:11;5.80;;;1.13;;
65077;SDS011;51672;51.230;-2.322;2022-09-09T07:24:54;4.78;;;0.90;;
65077;SDS011;51672;51.230;-2.322;2022-09-09T07:28:37;4.97;;;1.20;;
65077;SDS011;51672;51.230;-2.322;2022-09-09T07:32:19;6.57;;;1.42;;
65077;SDS011;51672;51.230;-2.322;2022-09-09T07:36:06;5.35;;;0.93;;
65077;SDS011;51672;51.230;-2.322;2022-09-09T07:39:50;4.60;;;1.00;;
65077;SDS011;51672;51.230;-2.322;2022-09-09T07:43:32;4.95;;;1.60;;
65077;SDS011;51672;51.230;-2.322;2022-09-09T07:47:14;4.63;;;0.80;;
65077;SDS011;51672;51.230;-2.322;2022-09-09T07:51:13;6.47;;;1.17;;
65077;SDS011;51672;51.230;-2.322;2022-09-09T07:55:01;5.05;;;1.02;;
65077;SDS011;51672;51.230;-2.322;2022-09-09T07:58:47;3.80;;;1.00;;
65077;SDS011;51672;51.230;-2.322;2022-09-09T08:02:29;4.13;;;1.00;;
65077;SDS011;51672;51.230;-2.322;2022-09-09T08:06:11;3.80;;;0.85;;
65077;SDS011;51672;51.230;-2.322;2022-09-09T08:09:54;4.13;;;0.85;;
65077;SDS011;51672;51.230;-2.322;2022-09-09T08:13:37;3.47;;;0.82;;
65077;SDS011;51672;51.230;-2.322;2022-09-09T08:17:20;2.70;;;0.60;;
65077;SDS011;51672;51.230;-2.322;2022-09-09T08:21:06;6.72;;;1.05;;
65077;SDS011;51672;51.230;-2.322;2022-09-09T08:24:58;3.07;;;0.63;;
65077;SDS011;51672;51.230;-2.322;2022-09-09T08:28:40;3.90;;;0.95;;
65077;SDS011;51672;51.230;-2.322;2022-09-09T08:32:23;4.45;;;1.00;;
65077;SDS011;51672;51.230;-2.322;2022-09-09T08:36:05;5.73;;;0.80;;
65077;SDS011;51672;51.230;-2.322;2022-09-09T08:39:50;2.80;;;0.73;;
65077;SDS011;51672;51.230;-2.322;2022-09-09T08:43:35;5.55;;;0.93;;
65077;SDS011;51672;51.230;-2.322;2022-09-09T08:51:16;3.10;;;0.95;;
65077;SDS011;51672;51.230;-2.322;2022-09-09T08:55:05;3.53;;;0.60;;
65077;SDS011;51672;51.230;-2.322;2022-09-09T09:19:43;2.00;;;0.52;;
65077;SDS011;51672;51.230;-2.322;2022-09-09T09:27:53;3.33;;;0.65;;
65077;SDS011;51672;51.230;-2.322;2022-09-09T09:32:04;3.25;;;0.50;;
65077;SDS011;51672;51.230;-2.322;2022-09-09T09:40:11;2.45;;;0.50;;
65077;SDS011;51672;51.230;-2.322;2022-09-09T09:52:36;2.53;;;0.40;;
65077;SDS011;51672;51.230;-2.322;2022-09-09T10:00:22;2.78;;;0.50;;
65077;SDS011;51672;51.230;-2.322;2022-09-09T10:08:20;5.70;;;0.57;;
65077;SDS011;51672;51.230;-2.322;2022-09-09T11:09:05;2.00;;;0.50;;
65077;SDS011;51672;51.230;-2.322;2022-09-09T11:17:04;3.08;;;0.70;;
65077;SDS011;51672;51.230;-2.322;2022-09-09T11:21:17;2.43;;;0.57;;
65077;SDS011;51672;51.230;-2.322;2022-09-09T11:48:21;3.45;;;1.02;;
65077;SDS011;51672;51.230;-2.322;2022-09-09T11:52:50;3.73;;;1.07;;
65077;SDS011;51672;51.230;-2.322;2022-09-09T12:10:56;5.45;;;1.88;;
65077;SDS011;51672;51.230;-2.322;2022-09-09T12:15:24;3.72;;;1.30;;
65077;SDS011;51672;51.230;-2.322;2022-09-09T13:03:41;3.22;;;0.70;;
65077;SDS011;51672;51.230;-2.322;2022-09-09T13:08:06;5.43;;;1.00;;
65077;SDS011;51672;51.230;-2.322;2022-09-09T13:12:35;3.17;;;0.60;;
65077;SDS011;51672;51.230;-2.322;2022-09-09T14:35:57;5.40;;;1.60;;
65077;SDS011;51672;51.230;-2.322;2022-09-09T14:40:27;6.30;;;1.50;;
65077;SDS011;51672;51.230;-2.322;2022-09-09T14:44:57;7.63;;;1.75;;
